Time;durP1;ratioP1;P1;durP2;ratioP2;P2;SDS_P1;SDS_P2;PMS_P1;PMS_P2;Temp;Humidity;BMP_temperature;BMP_pressure;BME280_temperature;BME280_humidity;BME280_pressure;Samples;Min_cycle;Max_cycle;Signal;HPM_P1;HPM_P2
2022/12/31 00:02:18;;;;;;;367.37;208.03;;;;;;;;;;4363808;32;320219;-89
2022/12/31 00:04:45;;;;;;;352.10;202.53;;;;;;;;;;4373079;32;320793;-88
2022/12/31 00:07:12;;;;;;;334.20;191.27;;;;;;;;;;4374911;32;320602;-87
2022/12/31 00:09:40;;;;;;;308.53;184.97;;;;;;;;;;4361525;32;419767;-87
2022/12/31 00:12:07;;;;;;;305.23;172.40;;;;;;;;;;4374751;32;321109;-87
2022/12/31 00:14:34;;;;;;;298.73;166.37;;;;;;;;;;4363835;32;344998;-87
2022/12/31 00:17:01;;;;;;;275.30;155.67;;;;;;;;;;4373342;32;320385;-89
2022/12/31 00:19:27;;;;;;;224.73;131.67;;;;;;;;;;4363398;32;320890;-86
2022/12/31 00:21:54;;;;;;;217.90;125.30;;;;;;;;;;4373205;32;319753;-87
2022/12/31 00:24:21;;;;;;;199.20;114.90;;;;;;;;;;4362426;32;320370;-87
2022/12/31 00:26:49;;;;;;;189.23;111.03;;;;;;;;;;4373665;32;320443;-87
2022/12/31 00:29:16;;;;;;;182.37;107.57;;;;;;;;;;4361551;32;335341;-86
2022/12/31 00:31:43;;;;;;;210.73;125.00;;;;;;;;;;4374535;32;319993;-87
2022/12/31 00:34:09;;;;;;;209.13;123.17;;;;;;;;;;4374598;32;319637;-88
2022/12/31 00:36:38;;;;;;;205.10;121.80;;;;;;;;;;4365073;32;320372;-87
2022/12/31 00:39:07;;;;;;;208.67;121.43;;;;;;;;;;4373003;32;320480;-87
2022/12/31 00:41:34;;;;;;;209.67;118.63;;;;;;;;;;4364022;32;319509;-88
2022/12/31 00:44:02;;;;;;;183.30;109.17;;;;;;;;;;4373515;32;319684;-87
2022/12/31 00:46:30;;;;;;;181.53;107.10;;;;;;;;;;4363950;32;320741;-87
2022/12/31 00:48:57;;;;;;;153.73;90.50;;;;;;;;;;4373546;32;320300;-87
2022/12/31 00:51:26;;;;;;;132.87;77.47;;;;;;;;;;4363794;32;319513;-89
2022/12/31 00:53:53;;;;;;;131.47;77.03;;;;;;;;;;4373761;32;319401;-90
2022/12/31 00:56:21;;;;;;;110.77;66.63;;;;;;;;;;4363723;32;319461;-89
2022/12/31 00:58:48;;;;;;;120.60;69.13;;;;;;;;;;4372641;32;318725;-89
2022/12/31 01:01:18;;;;;;;126.23;77.20;;;;;;;;;;4368197;32;319327;-88
2022/12/31 01:03:46;;;;;;;128.03;76.30;;;;;;;;;;4385045;32;317345;-88
2022/12/31 01:06:13;;;;;;;116.17;67.17;;;;;;;;;;4363955;32;318806;-88
2022/12/31 01:08:40;;;;;;;103.77;61.03;;;;;;;;;;4373463;32;319169;-86
2022/12/31 01:11:20;;;;;;;87.30;52.10;;;;;;;;;;4374053;32;319252;-88
2022/12/31 01:13:49;;;;;;;74.13;46.43;;;;;;;;;;4360303;32;417487;-86
2022/12/31 01:16:19;;;;;;;79.30;45.67;;;;;;;;;;4363472;32;317686;-86
2022/12/31 01:18:46;;;;;;;73.50;45.10;;;;;;;;;;4373448;32;318196;-88
2022/12/31 01:21:13;;;;;;;73.97;44.30;;;;;;;;;;4363276;32;318627;-88
2022/12/31 01:23:40;;;;;;;72.80;43.07;;;;;;;;;;4371603;32;317457;-87
2022/12/31 01:26:09;;;;;;;74.27;44.53;;;;;;;;;;4371963;32;317668;-86
2022/12/31 01:28:36;;;;;;;76.37;43.93;;;;;;;;;;4360914;32;326327;-85
2022/12/31 01:31:05;;;;;;;62.20;39.43;;;;;;;;;;4371786;32;318358;-87
2022/12/31 01:33:33;;;;;;;71.50;40.10;;;;;;;;;;4363247;32;318619;-87
2022/12/31 01:36:04;;;;;;;65.07;41.27;;;;;;;;;;4377308;32;318371;-86
2022/12/31 01:38:31;;;;;;;67.43;39.90;;;;;;;;;;4365666;32;318325;-86
2022/12/31 01:40:58;;;;;;;64.10;39.27;;;;;;;;;;4374240;32;317494;-86
2022/12/31 01:43:44;;;;;;;72.00;40.17;;;;;;;;;;4365665;32;318754;-86
2022/12/31 01:46:14;;;;;;;64.83;36.50;;;;;;;;;;4374973;32;318232;-86
2022/12/31 01:48:43;;;;;;;54.67;34.13;;;;;;;;;;4362041;32;417192;-87
2022/12/31 01:51:10;;;;;;;46.60;30.47;;;;;;;;;;4375097;32;318149;-84
2022/12/31 01:53:37;;;;;;;42.77;29.07;;;;;;;;;;4365225;32;318312;-84
2022/12/31 01:56:04;;;;;;;55.00;32.13;;;;;;;;;;4374802;32;318291;-83
2022/12/31 01:58:36;;;;;;;46.47;30.67;;;;;;;;;;4364789;32;319024;-84
2022/12/31 02:01:04;;;;;;;58.87;33.63;;;;;;;;;;4372424;32;355832;-85
2022/12/31 02:03:31;;;;;;;61.37;35.27;;;;;;;;;;4364043;32;317595;-85
2022/12/31 02:06:04;;;;;;;67.20;38.47;;;;;;;;;;4374197;32;318242;-86
2022/12/31 02:08:31;;;;;;;60.23;36.97;;;;;;;;;;4363999;32;318355;-85
2022/12/31 02:10:57;;;;;;;65.27;38.70;;;;;;;;;;4375113;32;318338;-85
2022/12/31 02:13:25;;;;;;;74.97;44.47;;;;;;;;;;4363784;32;317981;-86
2022/12/31 02:16:00;;;;;;;72.17;45.80;;;;;;;;;;4374832;32;318048;-85
2022/12/31 02:18:34;;;;;;;61.60;38.70;;;;;;;;;;4364443;32;318946;-85
2022/12/31 02:21:31;;;;;;;60.27;39.53;;;;;;;;;;4374754;32;318461;-86
2022/12/31 02:24:32;;;;;;;66.90;40.77;;;;;;;;;;4361845;32;418505;-88
2022/12/31 02:27:03;;;;;;;67.33;41.90;;;;;;;;;;4362526;32;417944;-89
2022/12/31 02:29:55;;;;;;;69.73;41.83;;;;;;;;;;4366997;32;318408;-89
2022/12/31 02:32:28;;;;;;;65.97;39.37;;;;;;;;;;4362755;32;317778;-89
2022/12/31 02:34:59;;;;;;;60.33;38.40;;;;;;;;;;4375661;32;317740;-89
2022/12/31 02:37:28;;;;;;;59.30;38.43;;;;;;;;;;4363700;32;318326;-88
2022/12/31 02:39:56;;;;;;;60.97;40.17;;;;;;;;;;4373377;32;317828;-87
2022/12/31 02:42:23;;;;;;;57.40;35.60;;;;;;;;;;4364677;32;317862;-87
2022/12/31 02:44:49;;;;;;;59.60;36.37;;;;;;;;;;4374828;32;317775;-88
2022/12/31 02:47:28;;;;;;;67.67;39.13;;;;;;;;;;4365242;32;318203;-88
2022/12/31 02:50:20;;;;;;;60.80;39.07;;;;;;;;;;4375761;32;318256;-87
2022/12/31 02:52:54;;;;;;;62.10;38.33;;;;;;;;;;4362921;32;418506;-87
2022/12/31 02:55:28;;;;;;;61.37;35.47;;;;;;;;;;4365145;32;318017;-88
2022/12/31 02:58:01;;;;;;;54.47;34.37;;;;;;;;;;4374069;32;318440;-88
2022/12/31 03:03:20;;;;;;;54.27;34.17;;;;;;;;;;4364541;32;318383;-88
2022/12/31 03:05:48;;;;;;;62.33;33.50;;;;;;;;;;4373334;32;318283;-88
2022/12/31 03:08:22;;;;;;;52.27;32.97;;;;;;;;;;4363432;32;318597;-87
2022/12/31 03:10:49;;;;;;;59.90;33.00;;;;;;;;;;4373937;32;318381;-87
2022/12/31 03:13:15;;;;;;;66.43;38.40;;;;;;;;;;4364301;32;318330;-88
2022/12/31 03:15:42;;;;;;;62.90;38.30;;;;;;;;;;4374400;32;317867;-87
2022/12/31 03:18:11;;;;;;;68.57;41.03;;;;;;;;;;4372758;32;319239;-88
2022/12/31 03:23:28;;;;;;;103.30;60.50;;;;;;;;;;4364588;32;317914;-87
2022/12/31 03:25:55;;;;;;;108.43;63.73;;;;;;;;;;4374171;32;319184;-89
2022/12/31 03:28:24;;;;;;;105.77;66.10;;;;;;;;;;4365058;32;319413;-86
2022/12/31 03:30:54;;;;;;;89.80;56.47;;;;;;;;;;4373545;32;318988;-84
2022/12/31 03:33:21;;;;;;;114.57;65.87;;;;;;;;;;4363458;32;317435;-88
2022/12/31 03:35:50;;;;;;;117.47;66.83;;;;;;;;;;4374975;32;318855;-86
2022/12/31 03:38:18;;;;;;;109.77;64.13;;;;;;;;;;4365538;32;319146;-87
2022/12/31 03:40:48;;;;;;;114.17;64.47;;;;;;;;;;4375737;32;319282;-87
2022/12/31 03:43:15;;;;;;;111.40;63.27;;;;;;;;;;4362950;32;319288;-88
2022/12/31 03:45:42;;;;;;;109.90;62.47;;;;;;;;;;4372643;32;318676;-88
2022/12/31 03:48:10;;;;;;;101.53;61.40;;;;;;;;;;4373913;32;319240;-88
2022/12/31 03:50:36;;;;;;;98.57;59.63;;;;;;;;;;4363043;32;319395;-88
2022/12/31 03:53:05;;;;;;;91.70;55.90;;;;;;;;;;4373273;32;317630;-89
2022/12/31 03:55:32;;;;;;;100.73;59.10;;;;;;;;;;4365263;32;318388;-87
2022/12/31 03:58:02;;;;;;;110.63;62.83;;;;;;;;;;4372243;32;319596;-87
2022/12/31 04:00:29;;;;;;;106.90;60.60;;;;;;;;;;4363056;32;319149;-88
2022/12/31 04:02:56;;;;;;;97.23;58.93;;;;;;;;;;4373910;32;319384;-90
2022/12/31 04:05:23;;;;;;;98.33;57.57;;;;;;;;;;4363271;32;318218;-88
2022/12/31 04:07:51;;;;;;;99.73;60.43;;;;;;;;;;4374181;32;318434;-88
2022/12/31 04:10:20;;;;;;;157.73;89.97;;;;;;;;;;4381724;32;317666;-88
2022/12/31 04:12:47;;;;;;;171.33;99.07;;;;;;;;;;4374151;32;319607;-88
2022/12/31 04:15:17;;;;;;;179.60;100.83;;;;;;;;;;4363942;32;318436;-87
2022/12/31 04:17:44;;;;;;;101.87;62.47;;;;;;;;;;4372825;32;320587;-87
2022/12/31 04:20:11;;;;;;;79.33;51.23;;;;;;;;;;4373450;32;318599;-87
2022/12/31 04:22:38;;;;;;;84.37;48.13;;;;;;;;;;4360679;32;417142;-87
2022/12/31 04:25:09;;;;;;;78.57;47.27;;;;;;;;;;4372284;32;318263;-87
2022/12/31 04:27:38;;;;;;;73.63;44.63;;;;;;;;;;4362920;32;317375;-87
2022/12/31 04:30:06;;;;;;;69.97;41.80;;;;;;;;;;4373876;32;317490;-87
2022/12/31 04:32:33;;;;;;;58.67;37.40;;;;;;;;;;4363244;32;317496;-87
2022/12/31 04:34:59;;;;;;;57.03;36.60;;;;;;;;;;4373534;32;317611;-88
2022/12/31 04:37:26;;;;;;;61.97;37.50;;;;;;;;;;4362940;32;317448;-86
2022/12/31 04:39:53;;;;;;;69.70;39.73;;;;;;;;;;4372645;32;318085;-87
2022/12/31 04:42:20;;;;;;;68.43;39.90;;;;;;;;;;4363062;32;317603;-87
2022/12/31 04:44:48;;;;;;;70.50;43.63;;;;;;;;;;4372727;32;318041;-89
2022/12/31 04:47:15;;;;;;;67.50;39.57;;;;;;;;;;4364550;32;318415;-86
2022/12/31 04:49:41;;;;;;;66.10;39.30;;;;;;;;;;4372683;32;317779;-88
2022/12/31 04:52:08;;;;;;;78.73;50.60;;;;;;;;;;4372821;32;334561;-86
2022/12/31 04:54:35;;;;;;;81.93;51.00;;;;;;;;;;4363060;32;317419;-86
2022/12/31 04:57:02;;;;;;;71.87;40.27;;;;;;;;;;4373380;32;317631;-86
2022/12/31 04:59:28;;;;;;;68.53;41.33;;;;;;;;;;4363165;32;318725;-89
2022/12/31 05:01:57;;;;;;;68.40;42.83;;;;;;;;;;4372727;32;323097;-88
2022/12/31 05:04:23;;;;;;;73.53;44.07;;;;;;;;;;4362910;32;318443;-88
2022/12/31 05:06:50;;;;;;;70.83;44.43;;;;;;;;;;4373721;32;335315;-87
2022/12/31 05:09:17;;;;;;;74.40;47.10;;;;;;;;;;4365082;32;318502;-87
2022/12/31 05:11:44;;;;;;;107.23;61.57;;;;;;;;;;4376468;32;317729;-87
2022/12/31 05:14:11;;;;;;;80.67;49.30;;;;;;;;;;4375651;32;319567;-88
2022/12/31 05:16:37;;;;;;;81.70;48.53;;;;;;;;;;4362357;32;417674;-87
2022/12/31 05:19:08;;;;;;;75.90;47.47;;;;;;;;;;4375580;32;318954;-87
2022/12/31 05:21:35;;;;;;;72.10;44.90;;;;;;;;;;4367958;32;318638;-87
2022/12/31 05:24:02;;;;;;;73.60;43.17;;;;;;;;;;4376678;32;318405;-88
2022/12/31 05:26:28;;;;;;;74.33;45.30;;;;;;;;;;4368372;32;317875;-90
2022/12/31 05:28:56;;;;;;;89.70;53.73;;;;;;;;;;4378716;32;317584;-90
2022/12/31 05:31:23;;;;;;;142.57;72.73;;;;;;;;;;4368889;32;317614;-90
2022/12/31 05:33:50;;;;;;;197.50;104.30;;;;;;;;;;4378782;32;318597;-88
2022/12/31 05:36:18;;;;;;;87.27;52.20;;;;;;;;;;4366840;32;319984;-89
2022/12/31 05:38:45;;;;;;;64.77;43.63;;;;;;;;;;4377414;32;318544;-90
2022/12/31 05:41:12;;;;;;;67.17;44.97;;;;;;;;;;4376417;32;317732;-90
2022/12/31 05:43:38;;;;;;;74.70;48.37;;;;;;;;;;4363892;32;420767;-90
2022/12/31 05:46:06;;;;;;;85.37;48.13;;;;;;;;;;4377949;32;317613;-90
2022/12/31 05:48:32;;;;;;;85.33;51.13;;;;;;;;;;4367793;32;336522;-89
2022/12/31 05:50:59;;;;;;;88.00;55.07;;;;;;;;;;4381647;32;343527;-86
2022/12/31 05:53:27;;;;;;;92.60;57.23;;;;;;;;;;4370403;32;317586;-86
2022/12/31 05:55:54;;;;;;;106.03;59.53;;;;;;;;;;4381089;32;317492;-89
2022/12/31 05:58:21;;;;;;;133.27;78.77;;;;;;;;;;4370489;32;319594;-87
2022/12/31 06:00:48;;;;;;;112.50;71.13;;;;;;;;;;4377974;32;319597;-87
2022/12/31 06:03:15;;;;;;;106.00;62.70;;;;;;;;;;4367530;32;318460;-91
2022/12/31 06:05:42;;;;;;;101.43;60.97;;;;;;;;;;4378159;32;319223;-92
2022/12/31 06:08:09;;;;;;;98.23;60.43;;;;;;;;;;4379291;32;319292;-91
2022/12/31 06:10:39;;;;;;;115.57;60.93;;;;;;;;;;4367002;32;317751;-91
2022/12/31 06:13:05;;;;;;;116.73;65.47;;;;;;;;;;4377886;32;318481;-91
2022/12/31 06:15:32;;;;;;;112.20;64.90;;;;;;;;;;4367746;32;318700;-90
2022/12/31 06:17:59;;;;;;;110.30;61.43;;;;;;;;;;4377710;32;319035;-89
2022/12/31 06:20:26;;;;;;;112.23;68.47;;;;;;;;;;4368011;32;318269;-89
2022/12/31 06:22:54;;;;;;;121.97;66.30;;;;;;;;;;4386747;32;318400;-96
2022/12/31 06:25:23;;;;;;;118.30;71.00;;;;;;;;;;4380960;32;317344;-96
2022/12/31 06:27:53;;;;;;;110.77;68.20;;;;;;;;;;4392496;32;318466;-93
2022/12/31 06:30:20;;;;;;;132.43;77.20;;;;;;;;;;4367122;32;318610;-93
2022/12/31 06:32:48;;;;;;;170.97;90.53;;;;;;;;;;4380267;32;318614;-95
2022/12/31 06:35:16;;;;;;;167.90;99.87;;;;;;;;;;4369910;32;319218;-94
2022/12/31 06:37:47;;;;;;;183.23;114.03;;;;;;;;;;4378269;32;317049;-96
2022/12/31 06:40:14;;;;;;;181.90;108.97;;;;;;;;;;4369657;32;320528;-91
2022/12/31 06:42:42;;;;;;;177.53;108.93;;;;;;;;;;4379031;32;319653;-91
2022/12/31 06:45:11;;;;;;;210.67;118.00;;;;;;;;;;4377358;32;319753;-92
2022/12/31 06:47:38;;;;;;;254.47;146.97;;;;;;;;;;4365746;32;417232;-90
2022/12/31 06:50:06;;;;;;;273.00;155.07;;;;;;;;;;4375199;32;319753;-89
2022/12/31 06:52:33;;;;;;;299.40;173.87;;;;;;;;;;4364403;32;320300;-87
2022/12/31 06:55:00;;;;;;;303.13;180.50;;;;;;;;;;4373848;32;349366;-88
2022/12/31 06:57:27;;;;;;;298.93;170.53;;;;;;;;;;4365574;32;320881;-89
2022/12/31 06:59:55;;;;;;;265.87;151.87;;;;;;;;;;4374870;32;319844;-87
2022/12/31 07:02:39;;;;;;;265.87;155.97;;;;;;;;;;4364842;32;320639;-89
2022/12/31 07:05:26;;;;;;;275.53;158.80;;;;;;;;;;4375257;32;320625;-89
2022/12/31 07:08:03;;;;;;;224.60;122.00;;;;;;;;;;4362862;32;422287;-86
2022/12/31 07:10:39;;;;;;;170.43;98.60;;;;;;;;;;4364553;32;320467;-87
2022/12/31 07:13:24;;;;;;;168.83;96.87;;;;;;;;;;4374761;32;318787;-88
2022/12/31 07:16:02;;;;;;;182.73;107.10;;;;;;;;;;4362043;32;419300;-88
2022/12/31 07:18:36;;;;;;;181.33;113.57;;;;;;;;;;4365318;32;320779;-88
2022/12/31 07:21:04;;;;;;;214.77;125.00;;;;;;;;;;4374753;32;320524;-89
2022/12/31 07:23:31;;;;;;;218.07;131.93;;;;;;;;;;4363265;32;357607;-87
2022/12/31 07:26:06;;;;;;;214.93;129.97;;;;;;;;;;4373846;32;320665;-88
2022/12/31 07:28:46;;;;;;;217.83;127.47;;;;;;;;;;4363889;32;320553;-87
2022/12/31 07:31:26;;;;;;;228.97;141.10;;;;;;;;;;4374310;32;324058;-88
2022/12/31 07:33:59;;;;;;;213.90;131.50;;;;;;;;;;4362380;32;420145;-88
2022/12/31 07:36:40;;;;;;;220.87;133.00;;;;;;;;;;4364591;32;319682;-88
2022/12/31 07:39:13;;;;;;;187.57;120.80;;;;;;;;;;4374969;32;320002;-88
2022/12/31 07:41:54;;;;;;;188.10;121.83;;;;;;;;;;4362146;32;420139;-89
2022/12/31 07:44:37;;;;;;;197.63;115.90;;;;;;;;;;4363837;32;319603;-88
2022/12/31 07:47:13;;;;;;;214.87;130.37;;;;;;;;;;4374387;32;320544;-88
2022/12/31 07:49:43;;;;;;;245.30;142.17;;;;;;;;;;4362509;32;420815;-88
2022/12/31 07:52:10;;;;;;;245.07;148.33;;;;;;;;;;4374978;32;343781;-87
2022/12/31 07:54:37;;;;;;;209.10;133.50;;;;;;;;;;4367183;32;320695;-89
2022/12/31 07:57:05;;;;;;;239.33;142.23;;;;;;;;;;4373813;32;319829;-90
2022/12/31 07:59:42;;;;;;;204.67;122.87;;;;;;;;;;4367066;32;320242;-90
2022/12/31 08:02:22;;;;;;;206.27;124.37;;;;;;;;;;4383173;32;320206;-89
2022/12/31 08:04:58;;;;;;;210.97;126.90;;;;;;;;;;4367052;32;418853;-90
2022/12/31 08:07:35;;;;;;;231.17;132.07;;;;;;;;;;4365512;32;319486;-90
2022/12/31 08:10:08;;;;;;;235.63;139.97;;;;;;;;;;4374752;32;319703;-91
2022/12/31 08:12:37;;;;;;;214.20;131.67;;;;;;;;;;4365214;32;320443;-90
2022/12/31 08:15:13;;;;;;;229.63;138.80;;;;;;;;;;4375407;32;319799;-90
2022/12/31 08:17:40;;;;;;;234.20;143.33;;;;;;;;;;4361881;32;421465;-91
2022/12/31 08:20:13;;;;;;;233.93;141.60;;;;;;;;;;4374066;32;319758;-89
2022/12/31 08:23:01;;;;;;;211.70;131.53;;;;;;;;;;4361463;32;419862;-89
2022/12/31 08:25:35;;;;;;;215.70;133.00;;;;;;;;;;4364068;32;319749;-88
2022/12/31 08:28:12;;;;;;;233.87;143.50;;;;;;;;;;4374545;32;320510;-89
2022/12/31 08:30:50;;;;;;;214.90;126.93;;;;;;;;;;4362784;32;420231;-89
2022/12/31 08:33:22;;;;;;;203.37;129.93;;;;;;;;;;4364646;32;326276;-89
2022/12/31 08:36:06;;;;;;;198.63;125.23;;;;;;;;;;4373592;32;329208;-87
2022/12/31 08:38:45;;;;;;;187.37;119.57;;;;;;;;;;4363872;32;320596;-87
2022/12/31 08:41:21;;;;;;;187.63;119.50;;;;;;;;;;4373421;32;320041;-88
2022/12/31 08:43:55;;;;;;;211.90;135.50;;;;;;;;;;4364070;32;420350;-87
2022/12/31 08:46:27;;;;;;;499.20;329.10;;;;;;;;;;4374838;32;319776;-88
2022/12/31 08:48:55;;;;;;;252.73;162.53;;;;;;;;;;4387590;32;320637;-89
2022/12/31 08:51:25;;;;;;;221.10;142.60;;;;;;;;;;4367902;32;344783;-90
2022/12/31 08:53:54;;;;;;;209.73;135.20;;;;;;;;;;4379146;32;319701;-87
2022/12/31 08:56:29;;;;;;;210.30;141.20;;;;;;;;;;4366258;32;340787;-88
2022/12/31 08:59:12;;;;;;;196.13;131.87;;;;;;;;;;4378082;32;319679;-88
2022/12/31 09:01:55;;;;;;;240.20;152.83;;;;;;;;;;4367102;32;419458;-91
2022/12/31 09:04:27;;;;;;;175.27;116.20;;;;;;;;;;4369910;32;320710;-90
2022/12/31 09:06:59;;;;;;;182.43;118.67;;;;;;;;;;4380888;32;319456;-89
2022/12/31 09:09:37;;;;;;;181.77;117.20;;;;;;;;;;4369072;32;319567;-90
2022/12/31 09:12:14;;;;;;;177.73;114.00;;;;;;;;;;4380219;32;319724;-90
2022/12/31 09:14:45;;;;;;;172.10;112.83;;;;;;;;;;4366351;32;421555;-89
2022/12/31 09:17:33;;;;;;;176.57;119.03;;;;;;;;;;4379695;32;319556;-90
2022/12/31 09:20:00;;;;;;;166.73;112.20;;;;;;;;;;4366669;32;420260;-89
2022/12/31 09:22:29;;;;;;;188.67;118.73;;;;;;;;;;4368542;32;319622;-89
2022/12/31 09:24:56;;;;;;;193.40;121.80;;;;;;;;;;4378799;32;320345;-89
2022/12/31 09:27:28;;;;;;;202.10;132.30;;;;;;;;;;4369598;32;320315;-88
2022/12/31 09:30:02;;;;;;;239.40;144.37;;;;;;;;;;4378877;32;319463;-88
2022/12/31 09:32:41;;;;;;;238.43;149.40;;;;;;;;;;4369133;32;320279;-87
2022/12/31 09:35:18;;;;;;;240.73;150.77;;;;;;;;;;4378914;32;320063;-87
2022/12/31 09:37:49;;;;;;;206.90;133.83;;;;;;;;;;4365388;32;419182;-89
2022/12/31 09:40:56;;;;;;;175.57;112.47;;;;;;;;;;4367930;32;319655;-87
2022/12/31 09:44:14;;;;;;;133.83;83.77;;;;;;;;;;4355121;32;319559;-89
2022/12/31 09:47:17;;;;;;;123.80;76.90;;;;;;;;;;4365130;32;418917;-89
2022/12/31 09:50:20;;;;;;;83.63;56.67;;;;;;;;;;4365990;32;409246;-88
2022/12/31 09:53:17;;;;;;;213.23;119.73;;;;;;;;;;4358309;32;421959;-85
2022/12/31 09:55:49;;;;;;;101.60;64.80;;;;;;;;;;4373207;32;420922;-87
2022/12/31 09:58:35;;;;;;;104.47;61.13;;;;;;;;;;4370588;32;319261;-86
2022/12/31 10:01:12;;;;;;;89.03;52.27;;;;;;;;;;4376270;32;319037;-86
2022/12/31 10:04:01;;;;;;;82.13;53.20;;;;;;;;;;4362568;32;418293;-87
2022/12/31 10:06:33;;;;;;;81.03;55.87;;;;;;;;;;4366520;32;318686;-89
2022/12/31 10:09:16;;;;;;;85.93;53.53;;;;;;;;;;4377219;32;318744;-89
2022/12/31 10:11:59;;;;;;;83.87;49.50;;;;;;;;;;4362869;32;421727;-87
2022/12/31 10:14:41;;;;;;;90.90;55.30;;;;;;;;;;4366638;32;318439;-86
2022/12/31 10:17:22;;;;;;;81.07;53.33;;;;;;;;;;4374548;32;318353;-86
2022/12/31 10:20:23;;;;;;;81.50;53.83;;;;;;;;;;4362344;32;417940;-84
2022/12/31 10:23:20;;;;;;;102.77;61.40;;;;;;;;;;4361622;32;418122;-85
2022/12/31 10:26:16;;;;;;;77.27;52.83;;;;;;;;;;4361689;32;420716;-85
2022/12/31 10:28:53;;;;;;;88.17;59.23;;;;;;;;;;4360366;32;419119;-85
2022/12/31 10:31:37;;;;;;;86.17;55.53;;;;;;;;;;4365345;32;319605;-89
2022/12/31 10:34:14;;;;;;;76.40;50.00;;;;;;;;;;4373883;32;319209;-88
2022/12/31 10:36:52;;;;;;;87.33;53.17;;;;;;;;;;4362393;32;419365;-87
2022/12/31 10:39:28;;;;;;;89.47;61.97;;;;;;;;;;4364724;32;319106;-86
2022/12/31 10:42:12;;;;;;;107.77;66.20;;;;;;;;;;4373405;32;319224;-86
2022/12/31 10:45:05;;;;;;;136.90;89.13;;;;;;;;;;4361197;32;420816;-87
2022/12/31 10:48:03;;;;;;;92.70;62.50;;;;;;;;;;4364284;32;320568;-88
2022/12/31 10:50:47;;;;;;;86.53;61.13;;;;;;;;;;4364506;32;318396;-89
2022/12/31 10:53:42;;;;;;;85.10;59.30;;;;;;;;;;4362903;32;396654;-87
2022/12/31 10:56:50;;;;;;;86.57;59.80;;;;;;;;;;4373813;32;318565;-86
2022/12/31 10:59:46;;;;;;;84.57;59.43;;;;;;;;;;4360217;32;418434;-84
2022/12/31 11:02:36;;;;;;;82.37;56.20;;;;;;;;;;4364503;32;318522;-86
2022/12/31 11:05:27;;;;;;;70.77;49.10;;;;;;;;;;4373257;32;319093;-86
2022/12/31 11:08:08;;;;;;;84.50;47.53;;;;;;;;;;4360479;32;419927;-86
2022/12/31 11:11:26;;;;;;;68.93;44.10;;;;;;;;;;4362851;32;319347;-85
2022/12/31 11:14:22;;;;;;;85.67;51.37;;;;;;;;;;4325676;32;419372;-86
2022/12/31 11:17:03;;;;;;;84.60;49.40;;;;;;;;;;4361406;32;418760;-87
2022/12/31 11:19:41;;;;;;;83.47;50.50;;;;;;;;;;4363967;32;319901;-85
2022/12/31 11:22:33;;;;;;;75.10;43.83;;;;;;;;;;4372620;32;318557;-84
2022/12/31 11:25:16;;;;;;;72.93;48.57;;;;;;;;;;4361188;32;419533;-85
2022/12/31 11:27:59;;;;;;;68.30;51.23;;;;;;;;;;4361258;32;420880;-86
2022/12/31 11:30:33;;;;;;;72.80;50.00;;;;;;;;;;4364445;32;319299;-85
2022/12/31 11:33:17;;;;;;;63.53;45.17;;;;;;;;;;4373077;32;319391;-86
2022/12/31 11:36:05;;;;;;;96.37;67.17;;;;;;;;;;4361054;32;419184;-86
2022/12/31 11:38:38;;;;;;;65.83;46.67;;;;;;;;;;4364376;32;319404;-86
2022/12/31 11:41:07;;;;;;;80.60;53.33;;;;;;;;;;4374149;32;318623;-86
2022/12/31 11:43:39;;;;;;;58.03;39.97;;;;;;;;;;4363092;32;318636;-86
2022/12/31 11:46:54;;;;;;;62.03;43.20;;;;;;;;;;4372438;32;319324;-85
2022/12/31 11:49:39;;;;;;;56.03;36.73;;;;;;;;;;4335803;32;419060;-85
2022/12/31 11:52:33;;;;;;;50.20;33.87;;;;;;;;;;4372375;32;318659;-84
2022/12/31 11:55:23;;;;;;;36.77;26.80;;;;;;;;;;4360225;32;419505;-84
2022/12/31 11:57:50;;;;;;;47.67;29.87;;;;;;;;;;4360517;32;419420;-84
2022/12/31 12:00:19;;;;;;;48.33;33.23;;;;;;;;;;4363154;32;319186;-85
2022/12/31 12:02:48;;;;;;;60.17;40.70;;;;;;;;;;4373657;32;318620;-85
2022/12/31 12:05:20;;;;;;;60.40;40.07;;;;;;;;;;4363783;32;319193;-85
2022/12/31 12:07:47;;;;;;;57.17;40.07;;;;;;;;;;4374253;32;318427;-87
2022/12/31 12:10:23;;;;;;;71.43;44.87;;;;;;;;;;4363188;32;319206;-85
2022/12/31 12:12:51;;;;;;;196.33;93.03;;;;;;;;;;4373679;32;319209;-85
2022/12/31 12:15:23;;;;;;;53.57;36.43;;;;;;;;;;4363297;32;320430;-85
2022/12/31 12:17:53;;;;;;;60.43;38.67;;;;;;;;;;4371660;32;319288;-85
2022/12/31 12:20:26;;;;;;;61.63;39.73;;;;;;;;;;4361853;32;319347;-85
2022/12/31 12:22:56;;;;;;;55.93;38.73;;;;;;;;;;4373105;32;319389;-86
2022/12/31 12:25:25;;;;;;;57.13;36.83;;;;;;;;;;4364032;32;319420;-85
2022/12/31 12:27:52;;;;;;;48.77;33.40;;;;;;;;;;4373309;32;318563;-84
2022/12/31 12:30:22;;;;;;;59.80;40.70;;;;;;;;;;4362639;32;318585;-84
2022/12/31 12:32:54;;;;;;;60.90;40.90;;;;;;;;;;4371321;32;319604;-85
2022/12/31 12:35:28;;;;;;;64.90;42.17;;;;;;;;;;4362310;32;319436;-85
2022/12/31 12:38:00;;;;;;;67.10;42.00;;;;;;;;;;4372609;32;319482;-85
2022/12/31 12:40:27;;;;;;;87.73;46.40;;;;;;;;;;4362584;32;319318;-85
2022/12/31 12:42:54;;;;;;;63.23;40.87;;;;;;;;;;4372685;32;319628;-85
2022/12/31 12:45:23;;;;;;;326.73;128.77;;;;;;;;;;4361515;32;318717;-86
2022/12/31 12:47:55;;;;;;;417.47;194.73;;;;;;;;;;4371030;32;321329;-86
2022/12/31 12:50:32;;;;;;;309.83;137.90;;;;;;;;;;4361068;32;321302;-85
2022/12/31 12:53:23;;;;;;;126.60;68.37;;;;;;;;;;4372380;32;320895;-85
2022/12/31 12:55:57;;;;;;;182.80;94.83;;;;;;;;;;4359821;32;420640;-86
2022/12/31 12:58:40;;;;;;;80.97;54.00;;;;;;;;;;4362990;32;320428;-85
2022/12/31 13:01:16;;;;;;;73.83;49.47;;;;;;;;;;4372770;32;319318;-85
2022/12/31 13:04:22;;;;;;;70.03;47.70;;;;;;;;;;4359776;32;419551;-85
2022/12/31 13:07:02;;;;;;;76.07;52.23;;;;;;;;;;4358768;32;419483;-85
2022/12/31 13:09:45;;;;;;;78.73;49.77;;;;;;;;;;4362686;32;319410;-85
2022/12/31 13:12:20;;;;;;;68.47;44.87;;;;;;;;;;4371326;32;318400;-85
2022/12/31 13:14:56;;;;;;;62.80;42.97;;;;;;;;;;4358294;32;419248;-85
2022/12/31 13:17:49;;;;;;;70.07;42.23;;;;;;;;;;4360004;32;319254;-85
2022/12/31 13:20:25;;;;;;;61.60;43.93;;;;;;;;;;4361121;32;319276;-85
2022/12/31 13:22:58;;;;;;;72.40;48.43;;;;;;;;;;4371047;32;318768;-84
2022/12/31 13:25:31;;;;;;;72.70;50.30;;;;;;;;;;4361574;32;319536;-84
2022/12/31 13:28:03;;;;;;;77.50;50.60;;;;;;;;;;4371731;32;320007;-85
2022/12/31 13:30:35;;;;;;;76.03;53.93;;;;;;;;;;4363945;32;319280;-86
2022/12/31 13:33:05;;;;;;;97.90;55.10;;;;;;;;;;4375789;32;319396;-86
2022/12/31 13:35:40;;;;;;;85.20;55.23;;;;;;;;;;4364121;32;319370;-84
2022/12/31 13:38:16;;;;;;;81.10;55.07;;;;;;;;;;4374867;32;318645;-84
2022/12/31 13:40:49;;;;;;;85.17;56.10;;;;;;;;;;4361907;32;418417;-84
2022/12/31 13:43:22;;;;;;;85.03;53.77;;;;;;;;;;4367597;32;319411;-85
2022/12/31 13:46:02;;;;;;;86.90;57.97;;;;;;;;;;4378989;32;318557;-85
2022/12/31 13:48:35;;;;;;;86.20;57.03;;;;;;;;;;4364679;32;319202;-85
2022/12/31 13:51:07;;;;;;;81.67;57.97;;;;;;;;;;4375696;32;318459;-86
2022/12/31 13:53:40;;;;;;;101.20;60.87;;;;;;;;;;4365741;32;319384;-86
2022/12/31 13:56:13;;;;;;;103.07;69.40;;;;;;;;;;4375523;32;320572;-86
2022/12/31 13:58:45;;;;;;;127.93;75.63;;;;;;;;;;4362607;32;419415;-87
2022/12/31 14:01:18;;;;;;;99.53;61.03;;;;;;;;;;4375564;32;320258;-86
2022/12/31 14:03:54;;;;;;;88.90;62.47;;;;;;;;;;4362974;32;418276;-86
2022/12/31 14:06:27;;;;;;;85.87;54.10;;;;;;;;;;4365784;32;319052;-86
2022/12/31 14:08:55;;;;;;;86.27;58.73;;;;;;;;;;4375885;32;318737;-87
2022/12/31 14:11:34;;;;;;;101.47;65.50;;;;;;;;;;4365261;32;318509;-86
2022/12/31 14:14:11;;;;;;;92.23;62.00;;;;;;;;;;4375925;32;320275;-84
2022/12/31 14:16:45;;;;;;;94.40;59.37;;;;;;;;;;4366010;32;318961;-85
2022/12/31 14:19:20;;;;;;;85.40;58.27;;;;;;;;;;4374723;32;319181;-84
2022/12/31 14:21:53;;;;;;;90.00;60.50;;;;;;;;;;4360676;32;418277;-85
2022/12/31 14:24:32;;;;;;;93.70;62.10;;;;;;;;;;4364310;32;319325;-86
2022/12/31 14:27:03;;;;;;;88.43;60.60;;;;;;;;;;4374381;32;318719;-86
2022/12/31 14:29:34;;;;;;;108.10;64.17;;;;;;;;;;4365001;32;318394;-87
2022/12/31 14:32:18;;;;;;;116.43;78.93;;;;;;;;;;4376978;32;320343;-87
2022/12/31 14:34:53;;;;;;;112.10;76.47;;;;;;;;;;4364234;32;420256;-86
2022/12/31 14:37:27;;;;;;;126.70;74.73;;;;;;;;;;4365694;32;320120;-85
2022/12/31 14:40:06;;;;;;;119.20;71.70;;;;;;;;;;4374680;32;320410;-85